createdAt,value
2018-04-09T00:00:22.316Z,1003.47
2018-04-09T00:01:22.340Z,1003.48
2018-04-09T00:02:22.368Z,1003.47
2018-04-09T00:03:22.378Z,1003.45
2018-04-09T00:05:22.419Z,1003.43
2018-04-09T00:06:22.440Z,1003.41
2018-04-09T00:07:22.461Z,1003.37
2018-04-09T00:08:22.480Z,1003.34
2018-04-09T00:09:22.501Z,1003.31
2018-04-09T00:10:22.522Z,1003.32
2018-04-09T00:11:22.545Z,1003.32
2018-04-09T00:12:22.562Z,1003.36
2018-04-09T00:13:22.585Z,1003.33
2018-04-09T00:14:22.603Z,1003.37
2018-04-09T00:15:22.625Z,1003.35
2018-04-09T00:16:22.646Z,1003.36
2018-04-09T00:17:22.664Z,1003.39
2018-04-09T00:18:22.684Z,1003.43
2018-04-09T00:19:22.705Z,1003.4
2018-04-09T00:21:22.747Z,1003.39
2018-04-09T00:22:22.766Z,1003.38
2018-04-09T00:23:22.787Z,1003.36
2018-04-09T00:24:22.807Z,1003.33
2018-04-09T00:25:22.827Z,1003.3
2018-04-09T00:26:22.847Z,1003.33
2018-04-09T00:27:22.869Z,1003.31
2018-04-09T00:28:22.896Z,1003.34
2018-04-09T00:29:22.909Z,1003.34
2018-04-09T00:30:22.929Z,1003.33
2018-04-09T00:31:22.950Z,1003.33
2018-04-09T00:32:22.970Z,1003.38
2018-04-09T00:33:22.990Z,1003.4
2018-04-09T00:34:23.014Z,1003.38
2018-04-09T00:35:23.031Z,1003.41
2018-04-09T00:37:23.075Z,1003.4
2018-04-09T00:38:23.092Z,1003.36
2018-04-09T00:39:23.113Z,1003.39
2018-04-09T00:40:23.132Z,1003.34
2018-04-09T00:41:23.152Z,1003.31
2018-04-09T00:42:23.173Z,1003.27
2018-04-09T00:43:23.194Z,1003.27
2018-04-09T00:44:23.217Z,1003.26
2018-04-09T00:45:23.234Z,1003.22
2018-04-09T00:46:23.256Z,1003.21
2018-04-09T00:47:23.274Z,1003.21
2018-04-09T00:48:23.294Z,1003.23
2018-04-09T00:49:23.315Z,1003.2
2018-04-09T00:50:23.335Z,1003.19
2018-04-09T00:51:23.355Z,1003.2
2018-04-09T00:53:23.396Z,1003.18
2018-04-09T00:54:23.416Z,1003.18
2018-04-09T00:55:23.435Z,1003.17
2018-04-09T00:56:23.458Z,1003.16
2018-04-09T00:57:23.476Z,1003.16
2018-04-09T00:58:23.496Z,1003.15
2018-04-09T00:59:23.517Z,1003.13
2018-04-09T01:00:23.537Z,1003.11
2018-04-09T01:01:23.557Z,1003.08
2018-04-09T01:02:23.576Z,1003.08
2018-04-09T01:03:23.597Z,1003.08
2018-04-09T01:04:23.620Z,1003.07
2018-04-09T01:05:23.639Z,1003.07
2018-04-09T01:06:23.658Z,1003.1
2018-04-09T01:08:23.699Z,1003.16
2018-04-09T01:09:23.721Z,1003.15
2018-04-09T01:10:23.739Z,1003.2
2018-04-09T01:11:23.759Z,1003.15
2018-04-09T01:12:23.780Z,1003.16
2018-04-09T01:13:23.798Z,1003.18
2018-04-09T01:14:23.818Z,1003.23
2018-04-09T01:15:23.838Z,1003.2
2018-04-09T01:16:23.857Z,1003.25
2018-04-09T01:17:23.878Z,1003.25
2018-04-09T01:18:23.898Z,1003.22
2018-04-09T01:19:23.920Z,1003.17
2018-04-09T01:20:23.937Z,1003.19
2018-04-09T01:21:23.958Z,1003.21
2018-04-09T01:22:23.979Z,1003.18
2018-04-09T01:23:23.998Z,1003.18
2018-04-09T01:24:24.022Z,1003.19
2018-04-09T01:25:24.038Z,1003.18
2018-04-09T01:26:24.058Z,1003.19
2018-04-09T01:27:24.076Z,1003.22
2018-04-09T01:28:24.098Z,1003.21
2018-04-09T01:29:24.119Z,1003.19
2018-04-09T01:30:24.137Z,1003.18
2018-04-09T01:31:24.157Z,1003.15
2018-04-09T01:32:24.181Z,1003.17
2018-04-09T01:33:24.197Z,1003.14
2018-04-09T01:34:24.220Z,1003.14
2018-04-09T01:35:24.236Z,1003.15
2018-04-09T01:36:24.257Z,1003.14
2018-04-09T01:37:24.277Z,1003.13
2018-04-09T01:38:24.296Z,1003.14
2018-04-09T01:40:24.336Z,1003.12
2018-04-09T01:41:24.356Z,1003.15
2018-04-09T01:42:24.379Z,1003.14
2018-04-09T01:43:24.394Z,1003.13
2018-04-09T01:44:24.415Z,1003.16
2018-04-09T01:45:24.434Z,1003.17
2018-04-09T01:46:24.454Z,1003.16
2018-04-09T01:47:24.473Z,1003.16
2018-04-09T01:48:24.494Z,1003.16
2018-04-09T01:49:24.512Z,1003.15
2018-04-09T01:50:24.532Z,1003.12
2018-04-09T01:51:24.552Z,1003.1
2018-04-09T01:52:24.572Z,1003.13
2018-04-09T01:53:24.591Z,1003.12
2018-04-09T01:54:24.611Z,1003.12
2018-04-09T01:56:24.651Z,1003.06
2018-04-09T01:57:24.670Z,1003.09
2018-04-09T01:58:24.691Z,1003.06
2018-04-09T01:59:24.710Z,1003.03
2018-04-09T02:00:24.728Z,1003.04
2018-04-09T02:01:24.749Z,1003.03
2018-04-09T02:02:24.769Z,1002.99
2018-04-09T02:03:24.789Z,1002.99
2018-04-09T02:04:24.808Z,1003.02
2018-04-09T02:05:24.828Z,1003.04
2018-04-09T02:06:24.853Z,1003.05
2018-04-09T02:07:24.867Z,1003.07
2018-04-09T02:08:24.886Z,1003.07
2018-04-09T02:09:24.910Z,1003.04
2018-04-09T02:10:24.930Z,1003.04
2018-04-09T02:12:24.964Z,1002.98
2018-04-09T02:13:24.984Z,1002.99
2018-04-09T02:14:25.008Z,1002.91
2018-04-09T02:15:25.023Z,1002.89
2018-04-09T02:16:25.042Z,1002.88
2018-04-09T02:17:25.061Z,1002.88
2018-04-09T02:18:25.082Z,1002.81
2018-04-09T02:19:25.101Z,1002.87
2018-04-09T02:20:25.120Z,1002.86
2018-04-09T02:21:25.143Z,1002.86
2018-04-09T02:22:25.159Z,1002.86
2018-04-09T02:23:25.179Z,1002.87
2018-04-09T02:24:25.201Z,1002.86
2018-04-09T02:25:25.217Z,1002.87
2018-04-09T02:26:25.236Z,1002.86
2018-04-09T02:28:25.280Z,1002.85
2018-04-09T02:29:25.295Z,1002.85
2018-04-09T02:30:25.315Z,1002.83
2018-04-09T02:31:25.336Z,1002.78
2018-04-09T02:32:25.353Z,1002.75
2018-04-09T02:33:25.371Z,1002.75
2018-04-09T02:34:25.392Z,1002.77
2018-04-09T02:35:25.411Z,1002.75
2018-04-09T02:36:25.430Z,1002.74
2018-04-09T02:37:25.452Z,1002.75
2018-04-09T02:38:25.491Z,1002.78
2018-04-09T02:39:25.491Z,1002.71
2018-04-09T02:40:25.508Z,1002.75
2018-04-09T02:41:25.529Z,1002.69
2018-04-09T02:43:25.571Z,1002.73
2018-04-09T02:44:25.599Z,1002.73
2018-04-09T02:45:25.621Z,1002.73
2018-04-09T02:46:25.628Z,1002.75
2018-04-09T02:47:25.644Z,1002.76
2018-04-09T02:48:25.665Z,1002.73
2018-04-09T02:49:25.681Z,1002.75
2018-04-09T02:50:25.700Z,1002.73
2018-04-09T02:51:25.723Z,1002.7
2018-04-09T02:52:25.739Z,1002.71
2018-04-09T02:53:25.759Z,1002.67
2018-04-09T02:54:25.777Z,1002.72
2018-04-09T02:55:25.796Z,1002.67
2018-04-09T02:56:25.817Z,1002.66
2018-04-09T02:57:25.835Z,1002.64
2018-04-09T02:58:25.854Z,1002.66
2018-04-09T02:59:25.873Z,1002.66
2018-04-09T03:00:25.893Z,1002.66
2018-04-09T03:01:25.912Z,1002.63
2018-04-09T03:02:25.930Z,1002.62
2018-04-09T03:03:25.950Z,1002.62
2018-04-09T03:04:26.008Z,1002.57
2018-04-09T03:05:25.988Z,1002.57
2018-04-09T03:06:26.006Z,1002.59
2018-04-09T03:07:26.034Z,1002.6
2018-04-09T03:08:26.046Z,1002.55
2018-04-09T03:09:26.139Z,1002.6
2018-04-09T03:10:26.083Z,1002.58
2018-04-09T03:11:26.102Z,1002.56
2018-04-09T03:12:26.121Z,1002.54
2018-04-09T03:13:26.140Z,1002.56
2018-04-09T03:15:26.177Z,1002.56
2018-04-09T03:16:26.197Z,1002.57
2018-04-09T03:17:26.215Z,1002.57
2018-04-09T03:18:26.240Z,1002.6
2018-04-09T03:19:26.254Z,1002.58
2018-04-09T03:20:26.272Z,1002.54
2018-04-09T03:21:26.292Z,1002.6
2018-04-09T03:22:26.310Z,1002.61
2018-04-09T03:23:26.331Z,1002.57
2018-04-09T03:24:26.348Z,1002.55
2018-04-09T03:25:26.367Z,1002.6
2018-04-09T03:26:26.386Z,1002.59
2018-04-09T03:27:26.405Z,1002.56
2018-04-09T03:28:26.424Z,1002.56
2018-04-09T03:29:26.442Z,1002.56
2018-04-09T03:31:26.482Z,1002.56
2018-04-09T03:32:26.500Z,1002.57
2018-04-09T03:33:26.521Z,1002.57
2018-04-09T03:34:26.538Z,1002.53
2018-04-09T03:35:26.555Z,1002.53
2018-04-09T03:36:26.575Z,1002.55
2018-04-09T03:37:26.593Z,1002.63
2018-04-09T03:38:26.612Z,1002.62
2018-04-09T03:39:26.632Z,1002.65
2018-04-09T03:40:26.650Z,1002.65
2018-04-09T03:41:26.668Z,1002.65
2018-04-09T03:42:26.687Z,1002.67
2018-04-09T03:43:26.706Z,1002.62
2018-04-09T03:44:26.726Z,1002.64
2018-04-09T03:45:26.745Z,1002.63
2018-04-09T03:47:26.781Z,1002.65
2018-04-09T03:48:26.805Z,1002.65
2018-04-09T03:49:26.819Z,1002.63
2018-04-09T03:50:26.838Z,1002.66
2018-04-09T03:51:26.856Z,1002.67
2018-04-09T03:52:26.893Z,1002.66
2018-04-09T03:53:26.894Z,1002.65
2018-04-09T03:54:26.912Z,1002.65
2018-04-09T03:55:26.931Z,1002.65
2018-04-09T03:56:26.950Z,1002.64
2018-04-09T03:57:26.969Z,1002.65
2018-04-09T03:58:27.135Z,1002.63
2018-04-09T03:59:27.006Z,1002.65
2018-04-09T04:00:27.025Z,1002.65
2018-04-09T04:01:27.046Z,1002.64
2018-04-09T04:03:27.081Z,1002.62
2018-04-09T04:04:27.100Z,1002.63
2018-04-09T04:05:27.118Z,1002.65
2018-04-09T04:06:27.142Z,1002.65
2018-04-09T04:07:27.155Z,1002.66
2018-04-09T04:08:27.174Z,1002.69
2018-04-09T04:09:27.193Z,1002.71
2018-04-09T04:10:27.213Z,1002.71
2018-04-09T04:11:27.232Z,1002.72
2018-04-09T04:12:27.248Z,1002.71
2018-04-09T04:13:27.270Z,1002.67
2018-04-09T04:14:27.286Z,1002.66
2018-04-09T04:15:27.305Z,1002.66
2018-04-09T04:16:27.324Z,1002.68
2018-04-09T04:18:27.361Z,1002.67
2018-04-09T04:19:27.379Z,1002.66
2018-04-09T04:20:27.398Z,1002.66
2018-04-09T04:21:27.417Z,1002.65
2018-04-09T04:22:27.437Z,1002.62
2018-04-09T04:23:27.490Z,1002.67
2018-04-09T04:24:27.472Z,1002.72
2018-04-09T04:25:27.492Z,1002.67
2018-04-09T04:26:27.509Z,1002.68
2018-04-09T04:27:27.528Z,1002.74
2018-04-09T04:28:27.587Z,1002.71
2018-04-09T04:29:27.567Z,1002.77
2018-04-09T04:30:27.583Z,1002.72
2018-04-09T04:31:27.602Z,1002.69
2018-04-09T04:32:27.621Z,1002.68
2018-04-09T04:33:27.643Z,1002.66
2018-04-09T04:34:27.658Z,1002.63
2018-04-09T04:35:27.677Z,1002.62
2018-04-09T04:36:27.696Z,1002.61
2018-04-09T04:37:27.714Z,1002.69
2018-04-09T04:38:27.733Z,1002.67
2018-04-09T04:39:27.751Z,1002.7
2018-04-09T04:40:27.772Z,1002.75
2018-04-09T04:41:27.792Z,1002.73
2018-04-09T04:42:27.807Z,1002.79
2018-04-09T04:43:27.826Z,1002.77
2018-04-09T04:44:27.845Z,1002.77
2018-04-09T04:45:27.869Z,1002.85
2018-04-09T04:46:27.887Z,1002.88
2018-04-09T04:47:27.900Z,1002.86
2018-04-09T04:48:27.919Z,1002.85
2018-04-09T04:50:27.957Z,1002.86
2018-04-09T04:51:27.976Z,1002.83
2018-04-09T04:52:27.993Z,1002.84
2018-04-09T04:53:28.013Z,1002.79
2018-04-09T04:54:28.039Z,1002.81
2018-04-09T04:55:28.051Z,1002.77
2018-04-09T04:56:28.070Z,1002.74
2018-04-09T04:57:28.088Z,1002.79
2018-04-09T04:58:28.108Z,1002.82
2018-04-09T04:59:28.126Z,1002.93
2018-04-09T05:00:28.145Z,1002.9
2018-04-09T05:01:28.164Z,1002.85
2018-04-09T05:02:28.186Z,1002.85
2018-04-09T05:03:28.203Z,1002.9
2018-04-09T05:04:28.223Z,1002.87
2018-04-09T05:06:28.263Z,1003.03
2018-04-09T05:07:28.282Z,1003.06
2018-04-09T05:08:28.303Z,1003.09
2018-04-09T05:09:28.328Z,1003.09
2018-04-09T05:10:28.443Z,1003.09
2018-04-09T05:11:28.364Z,1003.07
2018-04-09T05:12:28.390Z,1003.13
2018-04-09T05:13:28.409Z,1003.11
2018-04-09T05:14:28.426Z,1003.14
2018-04-09T05:15:28.447Z,1003.11
2018-04-09T05:16:28.468Z,1003.15
2018-04-09T05:17:28.488Z,1003.14
2018-04-09T05:18:28.508Z,1003.12
2018-04-09T05:19:28.530Z,1003.2
2018-04-09T05:20:28.549Z,1003.24
2018-04-09T05:22:28.590Z,1003.29
2018-04-09T05:23:28.610Z,1003.36
2018-04-09T05:24:28.631Z,1003.42
2018-04-09T05:25:28.652Z,1003.46
2018-04-09T05:26:28.673Z,1003.43
2018-04-09T05:27:28.696Z,1003.49
2018-04-09T05:28:28.717Z,1003.45
2018-04-09T05:29:28.737Z,1003.42
2018-04-09T05:30:28.760Z,1003.44
2018-04-09T05:31:28.782Z,1003.42
2018-04-09T05:32:28.803Z,1003.39
2018-04-09T05:33:28.825Z,1003.46
2018-04-09T05:34:28.851Z,1003.45
2018-04-09T05:35:28.870Z,1003.49
2018-04-09T05:36:28.892Z,1003.47
2018-04-09T05:38:28.938Z,1003.6
2018-04-09T05:39:28.961Z,1003.67
2018-04-09T05:40:28.983Z,1003.69
2018-04-09T05:41:29.005Z,1003.68
2018-04-09T05:42:29.029Z,1003.72
2018-04-09T05:43:29.052Z,1003.7
2018-04-09T05:44:29.077Z,1003.73
2018-04-09T05:45:29.105Z,1003.66
2018-04-09T05:46:29.152Z,1003.64
2018-04-09T05:47:29.146Z,1003.65
2018-04-09T05:48:29.179Z,1003.62
2018-04-09T05:49:29.195Z,1003.61
2018-04-09T05:50:29.222Z,1003.58
2018-04-09T05:51:29.243Z,1003.6
2018-04-09T05:53:29.293Z,1003.68
2018-04-09T05:54:29.316Z,1003.76
2018-04-09T05:55:29.342Z,1003.79
2018-04-09T05:56:29.365Z,1003.87
2018-04-09T05:57:29.392Z,1003.9
2018-04-09T05:58:29.415Z,1003.96
2018-04-09T05:59:29.482Z,1003.93
2018-04-09T06:00:29.466Z,1003.98
2018-04-09T06:01:29.490Z,1003.97
2018-04-09T06:02:29.517Z,1003.99
2018-04-09T06:03:29.542Z,1004.05
2018-04-09T06:04:29.568Z,1004.02
2018-04-09T06:05:29.597Z,1004.04
2018-04-09T06:06:29.620Z,1004.03
2018-04-09T06:07:29.646Z,1004.04
2018-04-09T06:08:29.674Z,1004.15
2018-04-09T06:09:29.700Z,1004.17
2018-04-09T06:10:29.727Z,1004.19
2018-04-09T06:11:29.754Z,1004.21
2018-04-09T06:12:29.781Z,1004.22
2018-04-09T06:13:29.809Z,1004.19
2018-04-09T06:14:29.837Z,1004.23
2018-04-09T06:15:29.865Z,1004.22
2018-04-09T06:16:29.892Z,1004.3
2018-04-09T06:17:29.920Z,1004.32
2018-04-09T06:18:29.950Z,1004.32
2018-04-09T06:19:29.978Z,1004.35
2018-04-09T06:20:30.006Z,1004.38
2018-04-09T06:21:30.036Z,1004.41
2018-04-09T06:22:30.064Z,1004.42
2018-04-09T06:23:30.092Z,1004.44
2018-04-09T06:25:30.152Z,1004.54
2018-04-09T06:26:30.181Z,1004.66
2018-04-09T06:27:30.210Z,1004.64
2018-04-09T06:28:30.239Z,1004.68
2018-04-09T06:29:30.271Z,1004.71
2018-04-09T06:30:30.304Z,1004.72
2018-04-09T06:31:30.333Z,1004.78
2018-04-09T06:32:30.364Z,1004.77
2018-04-09T06:33:30.391Z,1004.79
2018-04-09T06:34:30.421Z,1004.82
2018-04-09T06:35:30.452Z,1004.87
2018-04-09T06:36:30.482Z,1004.88
2018-04-09T06:37:30.513Z,1004.94
2018-04-09T06:38:30.543Z,1005
2018-04-09T06:39:30.579Z,1005.01
2018-04-09T06:41:30.638Z,1005
2018-04-09T06:42:30.668Z,1005.02
2018-04-09T06:43:30.702Z,1005.04
2018-04-09T06:44:30.732Z,1005.07
2018-04-09T06:45:30.806Z,1005.04
2018-04-09T06:46:30.795Z,1005.06
2018-04-09T06:47:30.834Z,1005.1
2018-04-09T06:48:30.859Z,1005.06
2018-04-09T06:49:30.890Z,1005.08
2018-04-09T06:50:30.922Z,1005.08
2018-04-09T06:51:30.954Z,1005.12
2018-04-09T06:52:30.986Z,1005.07
2018-04-09T06:53:31.017Z,1005.06
2018-04-09T06:54:31.050Z,1005.04
2018-04-09T06:55:31.083Z,1004.98
2018-04-09T06:57:31.148Z,1004.95
2018-04-09T06:58:31.180Z,1004.92
2018-04-09T06:59:31.213Z,1004.87
2018-04-09T07:00:31.245Z,1004.84
2018-04-09T07:01:31.278Z,1004.78
2018-04-09T07:02:31.311Z,1004.78
2018-04-09T07:03:31.344Z,1004.74
2018-04-09T07:04:31.377Z,1004.71
2018-04-09T07:05:31.410Z,1004.71
2018-04-09T07:06:31.443Z,1004.7
2018-04-09T07:07:31.476Z,1004.66
2018-04-09T07:08:31.509Z,1004.7
2018-04-09T07:09:31.542Z,1004.69
2018-04-09T07:10:31.576Z,1004.72
2018-04-09T07:11:31.608Z,1004.67
2018-04-09T07:13:31.675Z,1004.68
2018-04-09T07:14:31.710Z,1004.62
2018-04-09T07:15:31.742Z,1004.61
2018-04-09T07:16:31.783Z,1004.56
2018-04-09T07:17:31.809Z,1004.51
2018-04-09T07:18:31.842Z,1004.5
2018-04-09T07:19:31.876Z,1004.49
2018-04-09T07:20:31.911Z,1004.48
2018-04-09T07:21:31.944Z,1004.46
2018-04-09T07:22:31.978Z,1004.41
2018-04-09T07:23:32.012Z,1004.43
2018-04-09T07:24:32.045Z,1004.45
2018-04-09T07:25:32.080Z,1004.44
2018-04-09T07:26:32.114Z,1004.43
2018-04-09T07:28:32.188Z,1004.38
2018-04-09T07:29:32.215Z,1004.41
2018-04-09T07:30:32.263Z,1004.42
2018-04-09T07:31:32.284Z,1004.4
2018-04-09T07:32:32.319Z,1004.38
2018-04-09T07:33:32.358Z,1004.35
2018-04-09T07:34:32.385Z,1004.34
2018-04-09T07:35:32.420Z,1004.31
2018-04-09T07:36:32.453Z,1004.29
2018-04-09T07:37:32.534Z,1004.26
2018-04-09T07:38:32.522Z,1004.2
2018-04-09T07:39:32.557Z,1004.21
2018-04-09T07:40:32.591Z,1004.2
2018-04-09T07:41:32.624Z,1004.2
2018-04-09T07:42:32.658Z,1004.22
2018-04-09T07:43:32.693Z,1004.24
2018-04-09T07:44:32.727Z,1004.2
2018-04-09T07:45:32.761Z,1004.21
2018-04-09T07:46:32.797Z,1004.09
2018-04-09T07:47:32.829Z,1004.15
2018-04-09T07:48:32.863Z,1004.13
2018-04-09T07:49:32.897Z,1004.06
2018-04-09T07:50:32.932Z,1004.08
2018-04-09T07:51:32.965Z,1004.1
2018-04-09T07:52:33.004Z,1004.07
2018-04-09T07:53:33.034Z,1004.08
2018-04-09T07:54:33.069Z,1004.08
2018-04-09T07:55:33.102Z,1004.05
2018-04-09T07:56:33.136Z,1004.02
2018-04-09T07:57:33.171Z,1004.01
2018-04-09T07:58:33.204Z,1003.95
2018-04-09T08:00:33.323Z,1003.92
2018-04-09T08:01:33.307Z,1003.88
2018-04-09T08:02:33.341Z,1003.87
2018-04-09T08:03:33.374Z,1003.81
2018-04-09T08:04:33.408Z,1003.8
2018-04-09T08:05:33.444Z,1003.84
2018-04-09T08:06:33.476Z,1003.8
2018-04-09T08:07:33.511Z,1003.78
2018-04-09T08:08:33.544Z,1003.81
2018-04-09T08:09:33.579Z,1003.84
2018-04-09T08:10:33.612Z,1003.86
2018-04-09T08:11:33.647Z,1003.86
2018-04-09T08:12:33.681Z,1003.78
2018-04-09T08:13:33.714Z,1003.82
2018-04-09T08:14:33.748Z,1003.8
2018-04-09T08:16:33.816Z,1003.86
2018-04-09T08:17:33.849Z,1003.86
2018-04-09T08:18:33.883Z,1003.85
2018-04-09T08:19:33.918Z,1003.93
2018-04-09T08:20:33.950Z,1003.9
2018-04-09T08:21:33.985Z,1003.92
2018-04-09T08:22:34.019Z,1003.93
2018-04-09T08:23:34.052Z,1003.92
2018-04-09T08:24:34.085Z,1003.89
2018-04-09T08:25:34.118Z,1003.93
2018-04-09T08:26:34.152Z,1003.89
2018-04-09T08:27:34.186Z,1003.88
2018-04-09T08:28:34.222Z,1003.87
2018-04-09T08:29:34.283Z,1003.87
2018-04-09T08:30:34.287Z,1003.84
2018-04-09T08:32:34.352Z,1003.78
2018-04-09T08:33:34.389Z,1003.79
2018-04-09T08:34:34.420Z,1003.74
2018-04-09T08:35:34.452Z,1003.76
2018-04-09T08:36:34.490Z,1003.75
2018-04-09T08:37:34.519Z,1003.7
2018-04-09T08:38:34.552Z,1003.62
2018-04-09T08:39:34.585Z,1003.56
2018-04-09T08:40:34.618Z,1003.6
2018-04-09T08:41:34.651Z,1003.56
2018-04-09T08:42:34.684Z,1003.56
2018-04-09T08:43:34.717Z,1003.59
2018-04-09T08:44:34.750Z,1003.58
2018-04-09T08:45:34.783Z,1003.57
2018-04-09T08:46:34.815Z,1003.57
2018-04-09T08:48:34.883Z,1003.58
2018-04-09T08:49:34.915Z,1003.56
2018-04-09T08:50:34.947Z,1003.59
2018-04-09T08:51:34.981Z,1003.58
2018-04-09T08:52:35.013Z,1003.61
2018-04-09T08:53:35.045Z,1003.56
2018-04-09T08:54:35.079Z,1003.55
2018-04-09T08:55:35.180Z,1003.54
2018-04-09T08:56:35.153Z,1003.54
2018-04-09T08:57:35.178Z,1003.55
2018-04-09T08:58:35.210Z,1003.53
2018-04-09T08:59:35.244Z,1003.53
2018-04-09T09:00:35.277Z,1003.54
2018-04-09T09:01:35.330Z,1003.52
2018-04-09T09:03:35.377Z,1003.55
2018-04-09T09:04:35.409Z,1003.57
2018-04-09T09:05:35.442Z,1003.57
2018-04-09T09:06:35.478Z,1003.61
2018-04-09T09:07:35.508Z,1003.55
2018-04-09T09:08:35.542Z,1003.56
2018-04-09T09:09:35.579Z,1003.51
2018-04-09T09:10:35.607Z,1003.52
2018-04-09T09:11:35.639Z,1003.48
2018-04-09T09:12:35.672Z,1003.46
2018-04-09T09:13:35.705Z,1003.46
2018-04-09T09:14:35.738Z,1003.43
2018-04-09T09:15:35.770Z,1003.44
2018-04-09T09:16:35.803Z,1003.45
2018-04-09T09:17:35.836Z,1003.43
2018-04-09T09:18:35.868Z,1003.48
2018-04-09T09:19:35.900Z,1003.45
2018-04-09T09:20:35.934Z,1003.41
2018-04-09T09:21:35.966Z,1003.4
2018-04-09T09:22:35.998Z,1003.41
2018-04-09T09:23:36.032Z,1003.44
2018-04-09T09:24:36.065Z,1003.37
2018-04-09T09:25:36.097Z,1003.36
2018-04-09T09:26:36.128Z,1003.38
2018-04-09T09:27:36.161Z,1003.33
2018-04-09T09:28:36.193Z,1003.33
2018-04-09T09:29:36.226Z,1003.34
2018-04-09T09:30:36.257Z,1003.33
2018-04-09T09:31:36.293Z,1003.34
2018-04-09T09:32:36.327Z,1003.37
2018-04-09T09:33:36.353Z,1003.35
2018-04-09T09:35:36.418Z,1003.32
2018-04-09T09:36:36.451Z,1003.29
2018-04-09T09:37:36.543Z,1003.24
2018-04-09T09:38:36.515Z,1003.23
2018-04-09T09:39:36.547Z,1003.2
2018-04-09T09:40:36.580Z,1003.16
2018-04-09T09:41:36.610Z,1003.14
2018-04-09T09:42:36.643Z,1003.14
2018-04-09T09:43:36.675Z,1003.08
2018-04-09T09:44:36.706Z,1003.06
2018-04-09T09:45:36.739Z,1003.05
2018-04-09T09:46:36.771Z,1003.05
2018-04-09T09:47:36.802Z,1003.02
2018-04-09T09:48:36.833Z,1003.01
2018-04-09T09:49:36.865Z,1003.03
2018-04-09T09:51:36.930Z,1003.06
2018-04-09T09:52:36.960Z,1003.06
2018-04-09T09:53:36.993Z,1003.07
2018-04-09T09:54:37.025Z,1003.03
2018-04-09T09:55:37.056Z,1003.06
2018-04-09T09:56:37.087Z,1003.08
2018-04-09T09:57:37.120Z,1003.05
2018-04-09T09:58:37.159Z,1003.01
2018-04-09T09:59:37.183Z,1003.05
2018-04-09T10:00:37.215Z,1003
2018-04-09T10:01:37.263Z,1003.04
2018-04-09T10:02:37.278Z,1003.01
2018-04-09T10:03:37.309Z,1003.07
2018-04-09T10:04:37.342Z,1003.01
2018-04-09T10:05:37.373Z,1003
2018-04-09T10:07:37.480Z,1002.98
2018-04-09T10:08:37.467Z,1002.95
2018-04-09T10:09:37.499Z,1002.95
2018-04-09T10:10:37.630Z,1002.97
2018-04-09T10:11:37.560Z,1002.94
2018-04-09T10:12:37.593Z,1002.9
2018-04-09T10:13:37.626Z,1002.9
2018-04-09T10:14:37.656Z,1002.87
2018-04-09T10:15:37.689Z,1002.9
2018-04-09T10:16:37.719Z,1002.88
2018-04-09T10:17:37.752Z,1002.85
2018-04-09T10:18:37.781Z,1002.87
2018-04-09T10:19:37.812Z,1002.89
2018-04-09T10:20:37.844Z,1002.85
2018-04-09T10:21:37.880Z,1002.85
2018-04-09T10:23:37.938Z,1002.83
2018-04-09T10:24:37.968Z,1002.81
2018-04-09T10:25:37.998Z,1002.79
2018-04-09T10:26:38.030Z,1002.76
2018-04-09T10:27:38.061Z,1002.76
2018-04-09T10:28:38.094Z,1002.83
2018-04-09T10:29:38.123Z,1002.81
2018-04-09T10:30:38.154Z,1002.8
2018-04-09T10:31:38.184Z,1002.81
2018-04-09T10:32:38.214Z,1002.79
2018-04-09T10:33:38.255Z,1002.82
2018-04-09T10:34:38.276Z,1002.82
2018-04-09T10:35:38.317Z,1002.74
2018-04-09T10:36:38.337Z,1002.73
2018-04-09T10:38:38.397Z,1002.73
2018-04-09T10:39:38.427Z,1002.76
2018-04-09T10:40:38.457Z,1002.73
2018-04-09T10:41:38.487Z,1002.72
2018-04-09T10:42:38.517Z,1002.73
2018-04-09T10:43:38.546Z,1002.72
2018-04-09T10:44:38.576Z,1002.72
2018-04-09T10:45:38.604Z,1002.72
2018-04-09T10:46:38.634Z,1002.7
2018-04-09T10:47:38.663Z,1002.71
2018-04-09T10:48:38.692Z,1002.73
2018-04-09T10:49:38.784Z,1002.73
2018-04-09T10:50:38.750Z,1002.71
2018-04-09T10:51:38.778Z,1002.7
2018-04-09T10:52:38.807Z,1002.71
2018-04-09T10:53:38.836Z,1002.68
2018-04-09T10:54:38.864Z,1002.66
2018-04-09T10:55:38.943Z,1002.67
2018-04-09T10:56:38.932Z,1002.68
2018-04-09T10:57:38.953Z,1002.67
2018-04-09T10:58:38.979Z,1002.69
2018-04-09T10:59:39.007Z,1002.66
2018-04-09T11:00:39.036Z,1002.65
2018-04-09T11:01:39.063Z,1002.63
2018-04-09T11:02:39.091Z,1002.6
2018-04-09T11:03:39.119Z,1002.64
2018-04-09T11:04:39.148Z,1002.61
2018-04-09T11:05:39.177Z,1002.61
2018-04-09T11:06:39.204Z,1002.6
2018-04-09T11:07:39.232Z,1002.61
2018-04-09T11:08:39.260Z,1002.59
2018-04-09T11:10:39.316Z,1002.54
2018-04-09T11:11:39.344Z,1002.55
2018-04-09T11:12:39.371Z,1002.5
2018-04-09T11:13:39.401Z,1002.51
2018-04-09T11:14:39.427Z,1002.45
2018-04-09T11:15:39.455Z,1002.46
2018-04-09T11:16:39.482Z,1002.48
2018-04-09T11:17:39.510Z,1002.41
2018-04-09T11:18:39.538Z,1002.38
2018-04-09T11:19:39.608Z,1002.35
2018-04-09T11:20:39.592Z,1002.41
2018-04-09T11:21:39.621Z,1002.45
2018-04-09T11:22:39.649Z,1002.45
2018-04-09T11:23:39.675Z,1002.44
2018-04-09T11:24:39.704Z,1002.41
2018-04-09T11:26:39.762Z,1002.44
2018-04-09T11:27:39.785Z,1002.46
2018-04-09T11:28:39.813Z,1002.47
2018-04-09T11:29:39.843Z,1002.46
2018-04-09T11:30:39.867Z,1002.49
2018-04-09T11:31:39.894Z,1002.46
2018-04-09T11:32:39.923Z,1002.47
2018-04-09T11:33:39.952Z,1002.52
2018-04-09T11:34:39.976Z,1002.5
2018-04-09T11:35:40.005Z,1002.49
2018-04-09T11:36:40.038Z,1002.5
2018-04-09T11:37:40.065Z,1002.48
2018-04-09T11:38:40.092Z,1002.45
2018-04-09T11:39:40.118Z,1002.45
2018-04-09T11:40:40.147Z,1002.39
2018-04-09T11:42:40.200Z,1002.36
2018-04-09T11:43:40.227Z,1002.41
2018-04-09T11:44:40.254Z,1002.38
2018-04-09T11:45:40.282Z,1002.36
2018-04-09T11:46:40.308Z,1002.3
2018-04-09T11:47:40.337Z,1002.37
2018-04-09T11:48:40.365Z,1002.31
2018-04-09T11:49:40.389Z,1002.34
2018-04-09T11:50:40.417Z,1002.33
2018-04-09T11:51:40.445Z,1002.34
2018-04-09T11:52:40.469Z,1002.31
2018-04-09T11:53:40.496Z,1002.31
2018-04-09T11:54:40.524Z,1002.3
2018-04-09T11:55:40.551Z,1002.34
2018-04-09T11:56:40.579Z,1002.34
2018-04-09T11:58:40.632Z,1002.31
2018-04-09T11:59:40.659Z,1002.32
2018-04-09T12:00:40.684Z,1002.31
2018-04-09T12:01:40.711Z,1002.32
2018-04-09T12:02:40.739Z,1002.36
2018-04-09T12:03:40.764Z,1002.3
2018-04-09T12:04:40.792Z,1002.35
2018-04-09T12:05:40.819Z,1002.35
2018-04-09T12:06:40.846Z,1002.37
2018-04-09T12:07:40.873Z,1002.35
2018-04-09T12:08:40.900Z,1002.35
2018-04-09T12:09:40.927Z,1002.33
2018-04-09T12:10:40.954Z,1002.32
2018-04-09T12:11:40.985Z,1002.29
2018-04-09T12:13:41.035Z,1002.31
2018-04-09T12:14:41.064Z,1002.28
2018-04-09T12:15:41.129Z,1002.3
2018-04-09T12:16:41.120Z,1002.29
2018-04-09T12:17:41.144Z,1002.33
2018-04-09T12:18:41.170Z,1002.29
2018-04-09T12:19:41.197Z,1002.3
2018-04-09T12:20:41.224Z,1002.33
2018-04-09T12:21:41.250Z,1002.28
2018-04-09T12:22:41.321Z,1002.33
2018-04-09T12:23:41.305Z,1002.35
2018-04-09T12:24:41.333Z,1002.3
2018-04-09T12:25:41.358Z,1002.27
2018-04-09T12:26:41.388Z,1002.23
2018-04-09T12:27:41.413Z,1002.22
2018-04-09T12:28:41.504Z,1002.2
2018-04-09T12:29:41.466Z,1002.21
2018-04-09T12:30:41.493Z,1002.18
2018-04-09T12:31:41.520Z,1002.23
2018-04-09T12:32:41.546Z,1002.2
2018-04-09T12:33:41.573Z,1002.2
2018-04-09T12:34:41.601Z,1002.2
2018-04-09T12:35:41.628Z,1002.19
2018-04-09T12:36:41.653Z,1002.25
2018-04-09T12:37:41.683Z,1002.22
2018-04-09T12:38:41.707Z,1002.26
2018-04-09T12:39:41.742Z,1002.3
2018-04-09T12:40:41.761Z,1002.29
2018-04-09T12:41:41.787Z,1002.28
2018-04-09T12:42:41.817Z,1002.28
2018-04-09T12:43:41.839Z,1002.27
2018-04-09T12:45:41.893Z,1002.26
2018-04-09T12:46:41.920Z,1002.23
2018-04-09T12:47:41.947Z,1002.25
2018-04-09T12:48:41.973Z,1002.22
2018-04-09T12:49:42.000Z,1002.2